createdAt,value
2022-12-18T00:19:41.000Z,46.40
2022-12-18T00:29:42.000Z,48.90
2022-12-18T00:39:42.000Z,44.30
2022-12-18T00:49:43.000Z,43.60
2022-12-18T00:59:43.000Z,46.80
2022-12-18T01:09:44.000Z,46.30
2022-12-18T01:19:44.000Z,41.40
2022-12-18T01:29:45.000Z,46.70
2022-12-18T01:49:46.000Z,47.00
2022-12-18T01:59:47.000Z,43.00
2022-12-18T02:09:47.000Z,41.30
2022-12-18T02:19:48.000Z,39.00
2022-12-18T02:29:49.000Z,38.60
2022-12-18T02:39:49.000Z,36.70
2022-12-18T02:49:50.000Z,39.80
2022-12-18T02:59:51.000Z,31.00
2022-12-18T03:19:52.000Z,35.70
2022-12-18T03:29:53.000Z,31.20
2022-12-18T03:39:53.000Z,36.50
2022-12-18T03:49:54.000Z,29.80
2022-12-18T03:59:55.000Z,31.40
2022-12-18T04:09:55.000Z,33.20
2022-12-18T04:19:56.000Z,38.00
2022-12-18T04:29:57.000Z,31.70
2022-12-18T04:49:58.000Z,36.60
2022-12-18T04:59:59.000Z,32.80
2022-12-18T05:09:59.000Z,32.90
2022-12-18T05:20:00.000Z,30.10
2022-12-18T05:30:01.000Z,31.20
2022-12-18T05:40:01.000Z,28.80
2022-12-18T05:50:02.000Z,28.30
2022-12-18T06:00:03.000Z,26.10
2022-12-18T06:20:04.000Z,25.90
2022-12-18T06:30:05.000Z,29.50
2022-12-18T06:40:06.000Z,25.30
2022-12-18T06:50:06.000Z,27.90
2022-12-18T07:00:07.000Z,26.00
2022-12-18T07:10:08.000Z,23.20
2022-12-18T07:20:08.000Z,20.30
2022-12-18T07:30:09.000Z,26.40
2022-12-18T07:50:10.000Z,26.50
2022-12-18T08:00:11.000Z,41.60
2022-12-18T08:10:12.000Z,30.20
2022-12-18T08:20:12.000Z,47.10
2022-12-18T08:30:13.000Z,52.10
2022-12-18T08:40:13.000Z,47.30
2022-12-18T08:50:14.000Z,43.70
2022-12-18T09:00:15.000Z,49.40
2022-12-18T09:20:16.000Z,36.00
2022-12-18T09:30:16.000Z,38.70
2022-12-18T09:40:17.000Z,35.60
2022-12-18T09:50:17.000Z,36.50
2022-12-18T10:00:17.000Z,35.40
2022-12-18T10:10:18.000Z,33.20
2022-12-18T10:20:18.000Z,35.10
2022-12-18T10:30:19.000Z,30.20
2022-12-18T10:30:19.000Z,30.20
2022-12-18T10:50:19.000Z,34.90
2022-12-18T11:00:19.000Z,31.70
2022-12-18T11:10:19.000Z,30.50
2022-12-18T11:20:20.000Z,31.50
2022-12-18T11:30:20.000Z,31.20
2022-12-18T11:40:20.000Z,30.70
2022-12-18T11:50:20.000Z,33.40
2022-12-18T12:00:20.000Z,29.90
2022-12-18T12:00:20.000Z,29.90
2022-12-18T12:20:20.000Z,33.40
2022-12-18T12:30:20.000Z,31.40
2022-12-18T12:30:20.000Z,31.40
2022-12-18T12:40:20.000Z,25.10
2022-12-18T12:50:21.000Z,22.40
2022-12-18T13:00:21.000Z,23.00
2022-12-18T13:10:21.000Z,22.10
2022-12-18T13:20:21.000Z,24.20
2022-12-18T13:30:21.000Z,23.40
2022-12-18T13:30:21.000Z,23.40
2022-12-18T13:50:21.000Z,21.60
2022-12-18T14:00:21.000Z,24.30
2022-12-18T14:00:21.000Z,24.30
2022-12-18T14:10:21.000Z,24.50
2022-12-18T14:20:21.000Z,30.50
2022-12-18T14:30:21.000Z,32.00
2022-12-18T14:40:21.000Z,34.30
2022-12-18T14:50:21.000Z,33.10
2022-12-18T15:15:57.000Z,35.30
2022-12-18T15:15:57.000Z,34.10
2022-12-18T15:25:57.000Z,32.90
2022-12-18T15:35:57.000Z,33.90
2022-12-18T15:45:58.000Z,33.10
2022-12-18T15:55:58.000Z,36.50
2022-12-18T16:05:58.000Z,40.80
2022-12-18T16:15:58.000Z,39.90
2022-12-18T16:56:17.000Z,45.00
2022-12-18T16:56:17.000Z,39.90
2022-12-18T17:26:36.000Z,41.90
2022-12-18T17:26:36.000Z,42.10
2022-12-18T17:36:36.000Z,34.20
2022-12-18T17:46:35.000Z,34.40
2022-12-18T17:56:35.000Z,32.80
2022-12-18T18:06:35.000Z,35.20
2022-12-18T18:16:35.000Z,32.00
2022-12-18T18:26:35.000Z,31.10
2022-12-18T18:36:35.000Z,32.30
2022-12-18T18:36:35.000Z,32.30
2022-12-18T18:56:35.000Z,28.50
2022-12-18T19:06:35.000Z,32.70
2022-12-18T19:16:34.000Z,27.80
2022-12-18T19:26:34.000Z,28.00
2022-12-18T19:36:34.000Z,26.60
2022-12-18T19:46:34.000Z,33.60
2022-12-18T19:56:34.000Z,29.20
2022-12-18T20:06:34.000Z,27.40
2022-12-18T20:26:33.000Z,42.10
2022-12-18T20:36:33.000Z,23.80
2022-12-18T20:46:33.000Z,23.80
2022-12-18T20:56:33.000Z,41.90
2022-12-18T20:56:33.000Z,41.90
2022-12-18T21:06:33.000Z,49.00
2022-12-18T21:16:33.000Z,24.00
2022-12-18T21:26:32.000Z,25.60
2022-12-18T21:36:32.000Z,21.60
2022-12-18T21:56:32.000Z,26.00
2022-12-18T22:06:32.000Z,20.50
2022-12-18T22:16:32.000Z,21.50
2022-12-18T22:26:31.000Z,21.90
2022-12-18T22:36:31.000Z,53.40
2022-12-18T22:46:31.000Z,22.70
2022-12-18T22:56:31.000Z,23.80
2022-12-18T23:06:30.000Z,23.90
2022-12-18T23:26:30.000Z,20.70
2022-12-18T23:26:30.000Z,20.70
2022-12-18T23:36:30.000Z,22.50
2022-12-18T23:46:29.000Z,25.50
2022-12-18T23:56:29.000Z,22.30
